createdAt,value
2023-05-14T00:00:06.511Z,62.61
2023-05-14T00:01:08.172Z,63.23
2023-05-14T00:02:09.704Z,63.05
2023-05-14T00:03:11.820Z,63.21
2023-05-14T00:04:13.684Z,63.34
2023-05-14T00:05:15.465Z,63.82
2023-05-14T00:06:17.327Z,62.77
2023-05-14T00:07:18.897Z,63.43
2023-05-14T00:08:20.424Z,62.54
2023-05-14T00:09:21.968Z,64.39
2023-05-14T00:10:23.642Z,63.75
2023-05-14T00:11:25.984Z,63.05
2023-05-14T00:12:27.501Z,63.21
2023-05-14T00:13:29.287Z,62.91
2023-05-14T00:14:31.345Z,63.11
2023-05-14T00:15:34.368Z,63.02
2023-05-14T00:16:36.695Z,63.10
2023-05-14T00:17:38.319Z,63.26
2023-05-14T00:18:40.012Z,63.18
2023-05-14T00:19:42.062Z,62.54
2023-05-14T00:20:43.661Z,62.15
2023-05-14T00:21:45.614Z,62.33
2023-05-14T00:22:47.160Z,62.31
2023-05-14T00:23:48.674Z,62.55
2023-05-14T00:24:50.383Z,62.06
2023-05-14T00:25:51.913Z,62.31
2023-05-14T00:26:53.436Z,62.46
2023-05-14T00:27:54.992Z,62.20
2023-05-14T00:28:56.524Z,62.06
2023-05-14T00:29:58.039Z,61.92
2023-05-14T00:30:59.688Z,61.18
2023-05-14T00:32:01.244Z,62.32
2023-05-14T00:33:02.880Z,62.61
2023-05-14T00:34:04.403Z,62.06
2023-05-14T00:35:06.500Z,62.33
2023-05-14T00:36:08.214Z,61.68
2023-05-14T00:37:09.772Z,61.76
2023-05-14T00:38:16.869Z,62.05
2023-05-14T00:39:18.404Z,61.63
2023-05-14T00:40:19.963Z,61.55
2023-05-14T00:41:21.684Z,61.46
2023-05-14T00:42:23.192Z,62.50
2023-05-14T00:43:25.949Z,62.31
2023-05-14T00:44:27.531Z,62.08
2023-05-14T00:45:29.190Z,62.43
2023-05-14T00:46:30.850Z,62.22
2023-05-14T00:47:34.809Z,62.33
2023-05-14T00:48:36.379Z,62.35
2023-05-14T00:49:39.973Z,62.34
2023-05-14T00:50:41.631Z,61.91
2023-05-14T00:51:46.804Z,62.47
2023-05-14T00:52:48.924Z,63.02
2023-05-14T00:53:50.570Z,62.62
2023-05-14T00:54:52.139Z,62.66
2023-05-14T00:55:53.714Z,63.08
2023-05-14T00:56:55.287Z,63.58
2023-05-14T00:57:56.800Z,62.90
2023-05-14T00:58:58.295Z,63.07
2023-05-14T00:59:59.777Z,63.44
2023-05-14T01:01:01.296Z,63.42
2023-05-14T01:02:02.907Z,63.17
2023-05-14T01:03:05.166Z,63.13
2023-05-14T01:04:06.859Z,62.77
2023-05-14T01:05:08.646Z,63.84
2023-05-14T01:06:13.525Z,63.51
2023-05-14T01:07:37.849Z,63.97
2023-05-14T01:08:57.708Z,62.99
2023-05-14T01:10:06.085Z,62.71
2023-05-14T01:11:22.668Z,63.47
2023-05-14T01:12:34.729Z,63.48
2023-05-14T01:13:54.644Z,62.83
2023-05-14T01:15:05.217Z,63.25
2023-05-14T01:16:06.830Z,64.09
2023-05-14T01:17:08.851Z,63.83
2023-05-14T01:18:11.110Z,63.94
2023-05-14T01:19:22.660Z,64.10
2023-05-14T01:20:24.364Z,64.11
2023-05-14T01:21:40.566Z,64.13
2023-05-14T01:22:42.633Z,63.23
2023-05-14T01:23:44.153Z,63.72
2023-05-14T01:24:45.827Z,63.05
2023-05-14T01:25:47.352Z,64.05
2023-05-14T01:26:49.207Z,64.10
2023-05-14T01:28:06.913Z,63.30
2023-05-14T01:29:16.198Z,63.35
2023-05-14T01:30:30.086Z,63.49
2023-05-14T01:31:32.274Z,63.70
2023-05-14T01:32:33.900Z,64.13
2023-05-14T01:33:35.587Z,63.37
2023-05-14T01:34:37.091Z,63.56
2023-05-14T01:35:38.628Z,63.51
2023-05-14T01:36:40.792Z,63.86
2023-05-14T01:37:42.850Z,63.65
2023-05-14T01:38:45.850Z,63.70
2023-05-14T01:39:47.442Z,64.05
2023-05-14T01:40:48.986Z,63.27
2023-05-14T01:41:50.661Z,63.75
2023-05-14T01:42:52.321Z,63.01
2023-05-14T01:43:53.859Z,64.02
2023-05-14T01:44:55.743Z,64.03
2023-05-14T01:45:57.368Z,63.33
2023-05-14T01:46:58.935Z,63.08
2023-05-14T01:48:01.253Z,63.19
2023-05-14T01:49:03.222Z,63.33
2023-05-14T01:50:05.046Z,63.36
2023-05-14T01:51:06.776Z,62.92
2023-05-14T01:52:08.545Z,62.56
2023-05-14T01:53:10.421Z,63.50
2023-05-14T01:54:12.029Z,63.75
2023-05-14T01:55:13.635Z,63.32
2023-05-14T01:56:15.213Z,62.81
2023-05-14T01:57:16.750Z,63.00
2023-05-14T01:58:18.760Z,62.90
2023-05-14T01:59:20.558Z,63.32
2023-05-14T02:00:24.072Z,63.00
2023-05-14T02:01:26.293Z,62.47
2023-05-14T02:02:27.965Z,63.37
2023-05-14T02:03:30.057Z,62.32
2023-05-14T02:04:31.921Z,62.79
2023-05-14T02:05:33.921Z,63.19
2023-05-14T02:06:35.763Z,62.90
2023-05-14T02:07:37.474Z,63.93
2023-05-14T02:08:39.045Z,63.46
2023-05-14T02:09:41.135Z,63.63
2023-05-14T02:10:42.697Z,64.20
2023-05-14T02:11:44.234Z,62.96
2023-05-14T02:12:45.765Z,63.60
2023-05-14T02:13:47.676Z,64.11
2023-05-14T02:14:49.344Z,63.08
2023-05-14T02:15:51.168Z,63.40
2023-05-14T02:16:52.860Z,64.06
2023-05-14T02:17:54.438Z,63.61
2023-05-14T02:18:56.094Z,63.42
2023-05-14T02:19:57.862Z,63.76
2023-05-14T02:20:59.531Z,64.15
2023-05-14T02:22:01.256Z,64.00
2023-05-14T02:23:02.794Z,63.83
2023-05-14T02:24:04.372Z,63.08
2023-05-14T02:25:06.455Z,63.29
2023-05-14T02:26:09.712Z,63.79
2023-05-14T02:27:12.883Z,63.64
2023-05-14T02:28:14.459Z,63.83
2023-05-14T02:29:16.054Z,63.71
2023-05-14T02:30:17.756Z,64.48
2023-05-14T02:31:19.473Z,63.88
2023-05-14T02:32:21.157Z,64.89
2023-05-14T02:33:22.890Z,64.26
2023-05-14T02:34:24.510Z,64.96
2023-05-14T02:35:26.087Z,64.94
2023-05-14T02:36:27.596Z,64.71
2023-05-14T02:37:29.208Z,64.55
2023-05-14T02:38:30.715Z,64.99
2023-05-14T02:39:32.361Z,64.18
2023-05-14T02:40:33.969Z,64.14
2023-05-14T02:41:35.518Z,63.98
2023-05-14T02:42:37.035Z,63.55
2023-05-14T02:43:39.151Z,65.10
2023-05-14T02:44:40.824Z,63.50
2023-05-14T02:45:42.483Z,63.62
2023-05-14T02:46:44.115Z,64.07
2023-05-14T02:47:45.931Z,64.24
2023-05-14T02:48:47.523Z,64.67
2023-05-14T02:49:49.069Z,64.85
2023-05-14T02:50:52.145Z,65.13
2023-05-14T02:51:56.301Z,64.19
2023-05-14T02:52:57.817Z,64.08
2023-05-14T02:53:59.434Z,65.04
2023-05-14T02:55:00.983Z,64.61
2023-05-14T02:56:02.930Z,63.83
2023-05-14T02:57:04.519Z,64.02
2023-05-14T02:58:06.040Z,64.40
2023-05-14T02:59:07.568Z,64.60
2023-05-14T03:00:10.130Z,65.11
2023-05-14T03:01:12.129Z,64.87
2023-05-14T03:02:13.986Z,64.55
2023-05-14T03:03:15.729Z,64.24
2023-05-14T03:04:17.716Z,63.90
2023-05-14T03:05:20.054Z,64.04
2023-05-14T03:06:21.587Z,63.82
2023-05-14T03:07:23.191Z,63.56
2023-05-14T03:08:25.041Z,64.11
2023-05-14T03:09:26.675Z,63.88
2023-05-14T03:10:28.322Z,63.95
2023-05-14T03:11:29.835Z,63.70
2023-05-14T03:12:31.403Z,64.45
2023-05-14T03:13:33.276Z,64.19
2023-05-14T03:14:34.867Z,64.97
2023-05-14T03:15:36.493Z,64.67
2023-05-14T03:16:38.229Z,64.83
2023-05-14T03:17:40.098Z,64.16
2023-05-14T03:18:41.658Z,64.46
2023-05-14T03:19:43.270Z,64.84
2023-05-14T03:20:44.856Z,64.41
2023-05-14T03:21:46.389Z,64.91
2023-05-14T03:22:47.970Z,64.14
2023-05-14T03:23:49.512Z,64.72
2023-05-14T03:24:51.042Z,65.04
2023-05-14T03:25:52.638Z,64.59
2023-05-14T03:26:54.199Z,64.69
2023-05-14T03:27:55.805Z,64.16
2023-05-14T03:28:57.363Z,64.20
2023-05-14T03:29:58.868Z,64.85
2023-05-14T03:31:00.990Z,64.24
2023-05-14T03:32:02.652Z,64.21
2023-05-14T03:33:04.593Z,64.51
2023-05-14T03:34:06.176Z,63.65
2023-05-14T03:35:08.142Z,64.14
2023-05-14T03:36:09.711Z,64.43
2023-05-14T03:37:11.391Z,63.99
2023-05-14T03:38:13.301Z,64.65
2023-05-14T03:39:21.130Z,64.51
2023-05-14T03:40:22.846Z,64.59
2023-05-14T03:41:24.561Z,65.03
2023-05-14T03:42:26.217Z,65.05
2023-05-14T03:43:27.795Z,64.53
2023-05-14T03:44:29.334Z,64.92
2023-05-14T03:45:30.978Z,65.17
2023-05-14T03:46:33.139Z,64.95
2023-05-14T03:47:34.693Z,65.19
2023-05-14T03:48:36.351Z,64.78
2023-05-14T03:49:37.930Z,64.38
2023-05-14T03:50:39.458Z,64.40
2023-05-14T03:51:41.051Z,64.29
2023-05-14T03:52:43.875Z,64.56
2023-05-14T03:53:45.483Z,63.97
2023-05-14T03:54:46.983Z,63.71
2023-05-14T03:55:48.514Z,64.14
2023-05-14T03:56:50.050Z,65.05
2023-05-14T03:57:51.921Z,64.48
2023-05-14T03:58:53.465Z,64.31
2023-05-14T03:59:54.998Z,63.73
2023-05-14T04:00:56.746Z,64.14
2023-05-14T04:01:58.427Z,64.72
2023-05-14T04:03:00.395Z,63.86
2023-05-14T04:04:02.072Z,65.09
2023-05-14T04:05:04.291Z,64.73
2023-05-14T04:06:05.874Z,64.18
2023-05-14T04:07:08.035Z,64.91
2023-05-14T04:08:09.577Z,64.78
2023-05-14T04:09:11.094Z,64.05
2023-05-14T04:10:13.453Z,64.32
2023-05-14T04:11:15.024Z,63.90
2023-05-14T04:12:16.570Z,63.60
2023-05-14T04:13:18.109Z,64.23
2023-05-14T04:14:19.649Z,63.81
2023-05-14T04:15:21.200Z,63.64
2023-05-14T04:16:22.850Z,64.13
2023-05-14T04:17:24.757Z,64.34
2023-05-14T04:18:26.396Z,63.62
2023-05-14T04:19:28.045Z,63.92
2023-05-14T04:20:29.588Z,64.15
2023-05-14T04:21:31.292Z,63.89
2023-05-14T04:22:33.164Z,63.89
2023-05-14T04:23:34.721Z,63.97
2023-05-14T04:24:36.256Z,64.20
2023-05-14T04:25:37.795Z,64.53
2023-05-14T04:26:39.306Z,64.25
2023-05-14T04:27:41.375Z,64.62
2023-05-14T04:28:42.894Z,64.40
2023-05-14T04:29:44.519Z,64.91
2023-05-14T04:30:46.138Z,64.05
2023-05-14T04:31:49.403Z,64.68
2023-05-14T04:32:51.695Z,64.17
2023-05-14T04:33:53.268Z,64.08
2023-05-14T04:34:54.831Z,63.91
2023-05-14T04:35:56.574Z,64.11
2023-05-14T04:36:58.095Z,63.96
2023-05-14T04:37:59.696Z,64.30
2023-05-14T04:39:01.277Z,64.15
2023-05-14T04:40:02.832Z,64.39
2023-05-14T04:41:04.461Z,64.40
2023-05-14T04:42:06.839Z,63.71
2023-05-14T04:43:08.395Z,64.07
2023-05-14T04:44:09.888Z,63.60
2023-05-14T04:45:13.482Z,63.63
2023-05-14T04:46:15.549Z,64.23
2023-05-14T04:47:18.039Z,64.06
2023-05-14T04:48:19.549Z,64.04
2023-05-14T04:49:21.580Z,63.98
2023-05-14T04:50:23.355Z,63.84
2023-05-14T04:51:25.047Z,63.58
2023-05-14T04:52:26.940Z,62.56
2023-05-14T04:53:28.514Z,63.31
2023-05-14T04:54:30.160Z,62.28
2023-05-14T04:55:31.729Z,63.25
2023-05-14T04:56:33.251Z,63.31
2023-05-14T04:57:34.755Z,63.34
2023-05-14T04:58:36.360Z,63.45
2023-05-14T04:59:38.016Z,63.05
2023-05-14T05:00:40.181Z,62.85
2023-05-14T05:01:41.739Z,62.50
2023-05-14T05:02:43.687Z,62.40
2023-05-14T05:03:45.299Z,62.84
2023-05-14T05:04:47.222Z,62.96
2023-05-14T05:05:48.782Z,62.38
2023-05-14T05:06:51.145Z,62.62
2023-05-14T05:07:52.711Z,62.51
2023-05-14T05:08:54.829Z,62.51
2023-05-14T05:09:56.315Z,61.79
2023-05-14T05:10:57.814Z,61.49
2023-05-14T05:11:59.357Z,62.39
2023-05-14T05:13:00.854Z,62.45
2023-05-14T05:14:02.459Z,61.45
2023-05-14T05:15:05.008Z,61.62
2023-05-14T05:16:06.688Z,61.31
2023-05-14T05:17:08.260Z,61.53
2023-05-14T05:18:09.774Z,61.23
2023-05-14T05:19:11.404Z,60.81
2023-05-14T05:20:13.313Z,61.26
2023-05-14T05:21:14.804Z,61.50
2023-05-14T05:22:16.351Z,61.38
2023-05-14T05:23:17.862Z,61.35
2023-05-14T05:24:19.420Z,61.10
2023-05-14T05:25:20.981Z,61.76
2023-05-14T05:26:22.480Z,61.35
2023-05-14T05:27:23.999Z,61.83
2023-05-14T05:28:25.551Z,61.38
2023-05-14T05:29:27.220Z,60.94
2023-05-14T05:30:30.197Z,60.62
2023-05-14T05:31:32.046Z,60.25
2023-05-14T05:32:33.726Z,60.45
2023-05-14T05:33:35.372Z,60.40
2023-05-14T05:34:36.951Z,60.88
2023-05-14T05:35:38.561Z,60.60
2023-05-14T05:36:40.419Z,60.59
2023-05-14T05:37:42.663Z,60.92
2023-05-14T05:38:44.286Z,60.69
2023-05-14T05:39:47.632Z,61.15
2023-05-14T05:40:49.223Z,60.93
2023-05-14T05:41:50.724Z,60.91
2023-05-14T05:42:52.267Z,61.17
2023-05-14T05:43:53.803Z,60.52
2023-05-14T05:44:55.487Z,60.94
2023-05-14T05:45:57.344Z,60.31
2023-05-14T05:46:58.943Z,60.47
2023-05-14T05:48:00.647Z,60.34
2023-05-14T05:49:02.177Z,60.15
2023-05-14T05:50:03.945Z,60.23
2023-05-14T05:51:05.998Z,60.16
2023-05-14T05:52:07.503Z,60.51
2023-05-14T05:53:09.034Z,60.72
2023-05-14T05:54:10.533Z,61.46
2023-05-14T05:55:12.069Z,61.13
2023-05-14T05:56:13.684Z,60.94
2023-05-14T05:57:15.196Z,61.17
2023-05-14T05:58:17.300Z,60.91
2023-05-14T05:59:18.882Z,61.42
2023-05-14T06:00:20.972Z,61.07
2023-05-14T06:01:22.652Z,60.62
2023-05-14T06:02:25.221Z,60.59
2023-05-14T06:03:27.064Z,60.92
2023-05-14T06:04:28.615Z,60.79
2023-05-14T06:05:30.527Z,60.38
2023-05-14T06:06:33.024Z,59.87
2023-05-14T06:07:34.684Z,60.40
2023-05-14T06:08:36.216Z,59.68
2023-05-14T06:09:37.943Z,59.93
2023-05-14T06:10:39.832Z,59.77
2023-05-14T06:11:41.361Z,58.68
2023-05-14T06:12:42.920Z,58.51
2023-05-14T06:13:44.466Z,58.92
2023-05-14T06:14:45.996Z,58.97
2023-05-14T06:15:47.852Z,59.46
2023-05-14T06:16:49.422Z,59.35
2023-05-14T06:17:51.063Z,59.01
2023-05-14T06:18:52.901Z,59.35
2023-05-14T06:19:54.544Z,59.55
2023-05-14T06:20:57.409Z,59.10
2023-05-14T06:21:58.964Z,58.89
2023-05-14T06:23:00.501Z,58.64
2023-05-14T06:24:02.035Z,58.55
2023-05-14T06:25:04.379Z,58.71
2023-05-14T06:26:06.268Z,58.76
2023-05-14T06:27:07.777Z,58.20
2023-05-14T06:28:09.317Z,57.58
2023-05-14T06:29:10.857Z,57.94
2023-05-14T06:30:12.948Z,57.75
2023-05-14T06:31:14.461Z,58.38
2023-05-14T06:32:16.165Z,57.85
2023-05-14T06:33:20.021Z,57.60
2023-05-14T06:34:22.206Z,57.78
2023-05-14T06:35:23.921Z,58.01
2023-05-14T06:36:25.479Z,58.09
2023-05-14T06:37:26.972Z,57.94
2023-05-14T06:38:28.481Z,57.73
2023-05-14T06:39:30.056Z,57.49
2023-05-14T06:40:32.014Z,56.69
2023-05-14T06:41:33.522Z,56.56
2023-05-14T06:42:35.025Z,56.51
2023-05-14T06:43:36.626Z,56.51
2023-05-14T06:44:38.247Z,56.36
2023-05-14T06:45:40.065Z,56.28
2023-05-14T06:46:41.579Z,56.10
2023-05-14T06:47:43.130Z,56.75
2023-05-14T06:48:44.731Z,56.43
2023-05-14T06:49:46.413Z,56.07
2023-05-14T06:50:48.708Z,56.29
2023-05-14T06:51:50.256Z,56.04
2023-05-14T06:52:51.752Z,55.74
2023-05-14T06:53:54.265Z,55.14
2023-05-14T06:54:55.767Z,55.22
2023-05-14T06:55:57.334Z,54.46
2023-05-14T06:56:58.829Z,54.70
2023-05-14T06:58:00.326Z,54.20
2023-05-14T06:59:02.297Z,54.13
2023-05-14T07:00:04.331Z,53.86
2023-05-14T07:01:06.631Z,54.36
2023-05-14T07:02:08.186Z,55.22
2023-05-14T07:03:09.861Z,54.49
2023-05-14T07:04:11.684Z,54.72
2023-05-14T07:05:13.541Z,54.43
2023-05-14T07:06:15.118Z,54.18
2023-05-14T07:07:20.528Z,54.15
2023-05-14T07:08:22.109Z,54.22
2023-05-14T07:09:23.643Z,54.15
2023-05-14T07:10:25.829Z,54.42
2023-05-14T07:11:27.522Z,53.67
2023-05-14T07:12:29.156Z,53.90
2023-05-14T07:13:30.790Z,54.87
2023-05-14T07:14:32.332Z,54.76
2023-05-14T07:15:34.237Z,54.83
2023-05-14T07:16:36.136Z,54.23
2023-05-14T07:17:37.890Z,54.16
2023-05-14T07:18:39.452Z,53.73
2023-05-14T07:19:41.027Z,54.29
2023-05-14T07:20:42.533Z,54.23
2023-05-14T07:21:44.049Z,53.09
2023-05-14T07:22:45.559Z,52.45
2023-05-14T07:23:47.143Z,52.54
2023-05-14T07:24:49.428Z,51.51
2023-05-14T07:25:51.092Z,51.95
2023-05-14T07:26:52.595Z,51.11
2023-05-14T07:27:54.188Z,52.59
2023-05-14T07:28:56.063Z,52.48
2023-05-14T07:29:57.574Z,52.57
2023-05-14T07:30:59.547Z,51.64
2023-05-14T07:32:01.642Z,51.61
2023-05-14T07:33:03.303Z,51.37
2023-05-14T07:34:04.857Z,51.80
2023-05-14T07:35:07.331Z,51.03
2023-05-14T07:36:08.998Z,50.94
2023-05-14T07:37:10.575Z,49.76
2023-05-14T07:38:12.172Z,49.80
2023-05-14T07:39:13.750Z,50.52
2023-05-14T07:40:15.463Z,51.76
2023-05-14T07:41:17.086Z,51.52
2023-05-14T07:42:31.848Z,51.24
2023-05-14T07:43:38.850Z,53.39
2023-05-14T07:44:40.481Z,52.00
2023-05-14T07:45:42.250Z,52.36
2023-05-14T07:46:43.808Z,51.92
2023-05-14T07:47:45.407Z,51.79
2023-05-14T07:48:47.078Z,51.88
2023-05-14T07:49:48.608Z,52.13
2023-05-14T07:50:50.286Z,51.60
2023-05-14T07:51:51.849Z,51.65
2023-05-14T07:52:53.387Z,52.72
2023-05-14T07:53:55.731Z,52.40
2023-05-14T07:54:57.290Z,53.34
2023-05-14T07:56:00.075Z,53.05
2023-05-14T07:57:01.860Z,53.53
2023-05-14T07:58:03.381Z,53.01
2023-05-14T07:59:04.925Z,54.21
2023-05-14T08:00:10.278Z,54.25
2023-05-14T08:01:12.780Z,54.52
2023-05-14T08:02:16.058Z,54.96
2023-05-14T08:03:17.914Z,54.82
2023-05-14T08:04:19.753Z,54.49
2023-05-14T08:05:21.997Z,53.99
2023-05-14T08:06:26.466Z,53.68
2023-05-14T08:07:30.108Z,53.62
2023-05-14T08:08:31.703Z,53.65
2023-05-14T08:09:33.247Z,53.87
2023-05-14T08:10:34.924Z,53.16
2023-05-14T08:11:36.530Z,53.17
2023-05-14T08:12:38.920Z,53.13
2023-05-14T08:13:40.723Z,53.55
2023-05-14T08:14:42.328Z,54.34
2023-05-14T08:15:43.849Z,54.10
2023-05-14T08:16:45.521Z,53.89
2023-05-14T08:17:47.111Z,53.72
2023-05-14T08:18:48.684Z,53.87
2023-05-14T08:19:50.587Z,53.31
2023-05-14T08:20:52.164Z,53.73
2023-05-14T08:21:53.694Z,53.52
2023-05-14T08:22:56.350Z,53.50
2023-05-14T08:23:57.902Z,53.82
2023-05-14T08:25:01.291Z,54.06
2023-05-14T08:26:02.971Z,53.79
2023-05-14T08:27:04.908Z,54.00
2023-05-14T08:28:07.143Z,55.10
2023-05-14T08:29:10.689Z,54.94
2023-05-14T08:30:13.564Z,55.00
2023-05-14T08:31:15.219Z,54.96
2023-05-14T08:32:23.407Z,55.23
2023-05-14T08:33:25.597Z,55.01
2023-05-14T08:34:27.984Z,55.28
2023-05-14T08:35:29.857Z,54.69
2023-05-14T08:36:31.548Z,55.13
2023-05-14T08:37:33.101Z,55.63
2023-05-14T08:38:34.686Z,57.62
2023-05-14T08:39:36.510Z,57.80
2023-05-14T08:40:38.014Z,57.14
2023-05-14T08:41:40.086Z,56.32
2023-05-14T08:42:41.841Z,55.98
2023-05-14T08:44:02.963Z,55.27
2023-05-14T08:45:05.320Z,56.86
2023-05-14T08:46:07.053Z,56.39
2023-05-14T08:47:08.573Z,56.50
2023-05-14T08:48:10.213Z,57.13
2023-05-14T08:49:41.247Z,56.54
2023-05-14T08:50:43.671Z,54.84
2023-05-14T08:51:47.143Z,55.75
2023-05-14T08:52:48.941Z,56.10
2023-05-14T08:53:51.297Z,56.46
2023-05-14T08:54:54.192Z,56.20
2023-05-14T08:55:55.665Z,55.32
2023-05-14T08:56:57.200Z,55.42
2023-05-14T08:57:58.779Z,55.29
2023-05-14T08:59:00.800Z,54.62
2023-05-14T09:00:15.045Z,54.76
2023-05-14T09:01:16.836Z,53.69
2023-05-14T09:02:18.518Z,53.85
2023-05-14T09:03:20.574Z,53.96
2023-05-14T09:04:23.358Z,53.61
2023-05-14T09:05:25.221Z,53.88
2023-05-14T09:06:26.758Z,53.30
2023-05-14T09:07:28.339Z,52.78
2023-05-14T09:08:30.020Z,52.99
2023-05-14T09:09:31.554Z,53.22
2023-05-14T09:10:33.512Z,53.59
2023-05-14T09:11:35.021Z,53.97
2023-05-14T09:12:36.504Z,53.47
2023-05-14T09:13:41.037Z,53.32
2023-05-14T09:14:43.255Z,53.37
2023-05-14T09:15:44.741Z,53.32
2023-05-14T09:16:47.691Z,52.69
2023-05-14T09:17:49.464Z,52.92
2023-05-14T09:18:51.312Z,52.98
2023-05-14T09:19:53.354Z,53.87
2023-05-14T09:20:54.976Z,54.08
2023-05-14T09:21:57.765Z,53.70
2023-05-14T09:23:02.321Z,54.08
2023-05-14T09:24:04.107Z,54.12
2023-05-14T09:25:10.996Z,53.88
2023-05-14T09:26:15.309Z,54.22
2023-05-14T09:27:20.764Z,53.66
2023-05-14T09:28:22.739Z,53.68
2023-05-14T09:29:26.006Z,53.81
2023-05-14T09:30:27.936Z,53.82
2023-05-14T09:31:30.635Z,54.01
2023-05-14T09:32:44.410Z,53.42
2023-05-14T09:33:50.616Z,53.31
2023-05-14T09:34:52.140Z,52.88
2023-05-14T09:35:59.352Z,53.15
2023-05-14T09:37:02.091Z,52.88
2023-05-14T09:38:03.688Z,52.70
2023-05-14T09:39:05.253Z,52.12
2023-05-14T09:40:09.286Z,52.33
2023-05-14T09:41:10.907Z,51.51
2023-05-14T09:42:12.440Z,51.95
2023-05-14T09:43:14.126Z,52.11
2023-05-14T09:44:15.748Z,51.90
2023-05-14T09:45:17.747Z,52.21
2023-05-14T09:46:19.334Z,51.70
2023-05-14T09:47:21.044Z,51.62
2023-05-14T09:48:23.006Z,51.43
2023-05-14T09:49:24.631Z,51.94
2023-05-14T09:50:26.838Z,51.41
2023-05-14T09:51:31.536Z,51.74
2023-05-14T09:52:33.111Z,50.89
2023-05-14T09:53:35.566Z,50.85
2023-05-14T09:54:37.550Z,50.71
2023-05-14T09:55:39.261Z,51.05
2023-05-14T09:56:40.833Z,50.58
2023-05-14T09:57:42.429Z,50.50
2023-05-14T09:58:43.987Z,50.24
2023-05-14T09:59:45.821Z,50.22
2023-05-14T10:00:47.966Z,49.81
2023-05-14T10:01:49.882Z,49.47
2023-05-14T10:02:53.210Z,49.60
2023-05-14T10:03:55.063Z,49.19
2023-05-14T10:04:59.182Z,49.26
2023-05-14T10:06:04.737Z,49.12
2023-05-14T10:07:06.244Z,49.14
2023-05-14T10:08:14.685Z,49.35
2023-05-14T10:09:16.546Z,49.00
2023-05-14T10:10:21.468Z,49.21
2023-05-14T10:11:27.514Z,49.07
2023-05-14T10:12:30.925Z,49.20
2023-05-14T10:13:42.651Z,49.10
2023-05-14T10:14:47.649Z,48.86
2023-05-14T10:15:55.881Z,49.01
2023-05-14T10:16:57.502Z,48.92
2023-05-14T10:18:00.761Z,48.97
2023-05-14T10:19:06.543Z,49.17
2023-05-14T10:20:09.413Z,49.05
2023-05-14T10:21:11.457Z,48.22
2023-05-14T10:22:13.045Z,48.95
2023-05-14T10:23:14.570Z,49.16
2023-05-14T10:24:16.142Z,48.65
2023-05-14T10:25:17.663Z,48.89
2023-05-14T10:26:19.891Z,49.23
2023-05-14T10:27:22.428Z,49.24
2023-05-14T10:28:24.170Z,49.39
2023-05-14T10:29:33.857Z,49.76
2023-05-14T10:30:35.508Z,49.80
2023-05-14T10:31:55.501Z,50.21
2023-05-14T10:33:11.709Z,50.12
2023-05-14T10:34:33.680Z,49.18
2023-05-14T10:35:56.392Z,49.11
2023-05-14T10:37:05.352Z,49.28
2023-05-14T10:38:09.833Z,49.14
2023-05-14T10:39:11.388Z,49.45
2023-05-14T10:40:13.318Z,49.46
2023-05-14T10:41:17.582Z,49.60
2023-05-14T10:42:19.223Z,49.41
2023-05-14T10:43:20.916Z,49.37
2023-05-14T10:44:22.400Z,49.68
2023-05-14T10:45:23.970Z,50.05
2023-05-14T10:46:25.536Z,49.57
2023-05-14T10:47:29.929Z,49.26
2023-05-14T10:48:31.591Z,49.39
2023-05-14T10:49:43.015Z,49.83
2023-05-14T10:50:45.282Z,49.46
2023-05-14T10:51:49.510Z,49.22
2023-05-14T10:52:51.049Z,48.99
2023-05-14T10:53:52.573Z,48.88
2023-05-14T10:55:00.051Z,49.10
2023-05-14T10:56:07.816Z,48.68
2023-05-14T10:57:11.622Z,49.76
2023-05-14T10:58:13.299Z,49.31
2023-05-14T10:59:17.181Z,49.68
2023-05-14T11:00:19.075Z,49.70
2023-05-14T11:01:20.736Z,49.93
2023-05-14T11:02:26.865Z,50.89
2023-05-14T11:03:31.960Z,49.63
2023-05-14T11:04:33.558Z,49.01
2023-05-14T11:05:37.603Z,48.54
2023-05-14T11:06:39.543Z,48.51
2023-05-14T11:07:42.217Z,48.46
2023-05-14T11:08:44.006Z,49.11
2023-05-14T11:09:46.291Z,48.99
2023-05-14T11:10:47.879Z,46.82
2023-05-14T11:11:49.449Z,47.09
2023-05-14T11:12:51.405Z,47.20
2023-05-14T11:13:53.732Z,47.43
2023-05-14T11:14:59.184Z,47.31
2023-05-14T11:16:08.783Z,46.04
2023-05-14T11:17:17.117Z,46.27
2023-05-14T11:18:28.847Z,47.31
2023-05-14T11:19:30.418Z,47.33
2023-05-14T11:20:33.149Z,46.23
2023-05-14T11:21:34.645Z,45.82
2023-05-14T11:22:36.555Z,46.14
2023-05-14T11:23:38.173Z,46.86
2023-05-14T11:24:40.717Z,46.27
2023-05-14T11:25:42.954Z,46.12
2023-05-14T11:26:45.038Z,45.68
2023-05-14T11:27:47.421Z,45.92
2023-05-14T11:28:49.041Z,46.59
2023-05-14T11:29:50.694Z,46.63
2023-05-14T11:30:52.963Z,47.21
2023-05-14T11:31:54.608Z,47.07
2023-05-14T11:32:56.271Z,47.20
2023-05-14T11:33:57.865Z,46.79
2023-05-14T11:34:59.417Z,46.60
2023-05-14T11:36:00.999Z,46.76
2023-05-14T11:37:04.428Z,45.42
2023-05-14T11:38:07.941Z,45.61
2023-05-14T11:39:18.021Z,45.89
2023-05-14T11:40:20.057Z,46.17
2023-05-14T11:41:23.112Z,45.95
2023-05-14T11:42:25.914Z,45.48
2023-05-14T11:43:30.801Z,45.65
2023-05-14T11:44:32.847Z,45.64
2023-05-14T11:45:34.836Z,46.23
2023-05-14T11:46:36.540Z,45.95
2023-05-14T11:47:38.416Z,45.80
2023-05-14T11:48:39.991Z,45.44
2023-05-14T11:49:41.557Z,45.80
2023-05-14T11:50:46.204Z,45.87
2023-05-14T11:51:47.746Z,46.69
2023-05-14T11:52:50.860Z,47.74
2023-05-14T11:53:52.447Z,47.51
2023-05-14T11:54:54.344Z,46.81
2023-05-14T11:55:57.778Z,45.99
2023-05-14T11:57:01.110Z,46.26
2023-05-14T11:58:02.638Z,45.57
2023-05-14T11:59:04.178Z,45.32
2023-05-14T12:00:10.930Z,45.55
2023-05-14T12:01:13.458Z,45.43
2023-05-14T12:02:16.259Z,46.14
2023-05-14T12:03:25.522Z,45.04
2023-05-14T12:04:28.509Z,44.34
2023-05-14T12:05:30.408Z,45.14
2023-05-14T12:06:32.567Z,45.11
2023-05-14T12:07:34.129Z,45.72
2023-05-14T12:08:35.662Z,45.70
2023-05-14T12:09:45.165Z,45.40
2023-05-14T12:10:47.397Z,44.68
2023-05-14T12:11:50.677Z,44.32
2023-05-14T12:12:52.284Z,44.04
2023-05-14T12:13:53.816Z,43.95
2023-05-14T12:14:55.663Z,43.50
2023-05-14T12:15:58.798Z,43.81
2023-05-14T12:17:00.383Z,44.21
2023-05-14T12:18:02.897Z,44.54
2023-05-14T12:19:04.587Z,45.25
2023-05-14T12:20:10.760Z,45.12
2023-05-14T12:21:12.284Z,44.83
2023-05-14T12:22:15.644Z,45.06
2023-05-14T12:23:17.199Z,44.94
2023-05-14T12:24:20.035Z,44.85
2023-05-14T12:25:21.801Z,44.32
2023-05-14T12:26:23.406Z,44.65
2023-05-14T12:27:28.413Z,46.28
2023-05-14T12:28:30.091Z,45.91
2023-05-14T12:29:39.047Z,46.32
2023-05-14T12:30:41.297Z,45.69
2023-05-14T12:31:47.312Z,46.06
2023-05-14T12:32:51.694Z,46.37
2023-05-14T12:33:53.591Z,46.63
2023-05-14T12:34:55.101Z,46.35
2023-05-14T12:36:13.530Z,46.49
2023-05-14T12:37:21.743Z,45.69
2023-05-14T12:38:23.298Z,45.39
2023-05-14T12:39:25.051Z,45.61
2023-05-14T12:40:27.089Z,46.13
2023-05-14T12:41:28.750Z,46.77
2023-05-14T12:42:30.348Z,46.52
2023-05-14T12:43:32.174Z,46.72
2023-05-14T12:44:33.688Z,46.24
2023-05-14T12:45:35.286Z,45.21
2023-05-14T12:46:36.948Z,44.90
2023-05-14T12:47:38.641Z,45.01
2023-05-14T12:48:40.259Z,44.63
2023-05-14T12:49:41.767Z,44.91
2023-05-14T12:50:43.647Z,44.73
2023-05-14T12:51:46.878Z,45.28
2023-05-14T12:52:48.407Z,45.50
2023-05-14T12:53:51.601Z,44.81
2023-05-14T12:54:53.132Z,44.43
2023-05-14T12:55:54.820Z,44.66
2023-05-14T12:56:56.340Z,43.90
2023-05-14T12:57:57.899Z,45.03
2023-05-14T12:58:59.498Z,47.52
2023-05-14T13:00:01.339Z,46.97
2023-05-14T13:01:02.911Z,45.39
2023-05-14T13:02:04.802Z,43.51
2023-05-14T13:03:06.726Z,43.53
2023-05-14T13:04:12.426Z,44.90
2023-05-14T13:05:14.424Z,43.91
2023-05-14T13:06:15.946Z,43.23
2023-05-14T13:07:17.452Z,42.62
2023-05-14T13:08:21.487Z,42.96
2023-05-14T13:09:23.023Z,43.13
2023-05-14T13:10:24.956Z,41.79
2023-05-14T13:11:29.657Z,42.50
2023-05-14T13:12:31.313Z,42.44
2023-05-14T13:13:32.825Z,42.09
2023-05-14T13:14:34.368Z,42.28
2023-05-14T13:15:36.136Z,41.05
2023-05-14T13:16:37.685Z,40.94
2023-05-14T13:17:40.335Z,41.36
2023-05-14T13:18:41.904Z,41.67
2023-05-14T13:19:43.502Z,42.34
2023-05-14T13:20:46.628Z,42.67
2023-05-14T13:21:48.160Z,42.23
2023-05-14T13:22:49.672Z,41.93
2023-05-14T13:23:51.212Z,42.12
2023-05-14T13:24:52.723Z,41.46
2023-05-14T13:25:54.240Z,41.68